createdAt,value
2022-10-11T00:01:02.228Z,13.57
2022-10-11T00:03:30.744Z,13.59
2022-10-11T00:05:59.337Z,13.62
2022-10-11T00:08:27.892Z,13.64
2022-10-11T00:11:06.155Z,13.66
2022-10-11T00:13:34.739Z,13.67
2022-10-11T00:16:03.654Z,13.67
2022-10-11T00:18:32.269Z,13.67
2022-10-11T00:21:07.202Z,13.69
2022-10-11T00:23:36.340Z,13.66
2022-10-11T00:26:07.615Z,13.66
2022-10-11T00:28:36.443Z,13.64
2022-10-11T00:31:07.824Z,13.64
2022-10-11T00:33:36.943Z,13.60
2022-10-11T00:38:45.126Z,13.56
2022-10-11T00:41:14.190Z,13.56
2022-10-11T00:43:42.994Z,13.50
2022-10-11T00:46:19.969Z,13.51
2022-10-11T00:48:58.226Z,13.46
2022-10-11T00:51:50.730Z,13.46
2022-10-11T00:54:23.738Z,13.40
2022-10-11T00:56:58.764Z,13.32
2022-10-11T00:59:31.668Z,13.28
2022-10-11T01:02:00.180Z,13.18
2022-10-11T04:36:33.980Z,9.26
2022-10-11T04:39:02.824Z,9.17
2022-10-11T04:41:31.186Z,9.09
2022-10-11T04:43:59.541Z,9.12
2022-10-11T04:46:28.077Z,9.08
2022-10-11T04:48:56.794Z,9.06
2022-10-11T04:51:25.272Z,9.05
2022-10-11T04:53:53.592Z,9.07
2022-10-11T04:56:22.021Z,9.11
2022-10-11T04:58:54.078Z,9.15
2022-10-11T05:01:22.907Z,9.15
2022-10-11T05:03:51.241Z,9.05
2022-10-11T05:06:19.601Z,9.01
2022-10-11T05:08:47.608Z,8.98
2022-10-11T05:11:17.840Z,9.04
2022-10-11T05:13:47.255Z,9.03
2022-10-11T05:16:16.605Z,9.03
2022-10-11T05:18:45.365Z,9.03
2022-10-11T05:21:25.876Z,9.04
2022-10-11T05:23:56.656Z,9.01
2022-10-11T05:26:27.701Z,9.02
2022-10-11T05:28:56.347Z,8.99
2022-10-11T05:31:24.335Z,8.96
2022-10-11T05:33:52.361Z,8.94
2022-10-11T05:36:20.310Z,8.92
2022-10-11T05:38:48.648Z,8.86
2022-10-11T05:41:17.396Z,8.82
2022-10-11T05:43:45.979Z,8.80
2022-10-11T05:46:14.539Z,8.80
2022-10-11T05:48:42.907Z,8.80
2022-10-11T05:51:12.411Z,8.78
2022-10-11T05:53:40.961Z,8.80
2022-10-11T05:56:29.347Z,8.85
2022-10-11T05:59:02.191Z,8.91
2022-10-11T06:01:31.201Z,8.99
2022-10-11T06:03:59.617Z,9.03
2022-10-11T06:06:27.990Z,9.07
2022-10-11T06:08:56.345Z,9.11
2022-10-11T06:11:27.955Z,9.16
2022-10-11T06:13:59.299Z,9.20
2022-10-11T06:16:28.236Z,9.24
2022-10-11T06:18:58.152Z,9.24
2022-10-11T06:21:26.673Z,9.26
2022-10-11T06:24:00.794Z,9.27
2022-10-11T06:26:29.366Z,9.31
2022-10-11T06:28:58.407Z,9.33
2022-10-11T06:31:26.892Z,9.37
2022-10-11T06:33:54.889Z,9.38
2022-10-11T06:36:23.328Z,9.39
2022-10-11T06:38:54.913Z,9.34
2022-10-11T06:41:27.264Z,9.32
2022-10-11T06:43:55.529Z,9.36
2022-10-11T06:46:26.798Z,9.39
2022-10-11T06:48:56.433Z,9.44
2022-10-11T06:51:25.929Z,9.50
2022-10-11T06:53:56.879Z,9.52
2022-10-11T06:56:27.479Z,9.55
2022-10-11T06:58:57.211Z,9.58
2022-10-11T07:01:26.248Z,9.63
2022-10-11T07:03:56.104Z,9.63
2022-10-11T07:06:27.764Z,9.69
2022-10-11T07:08:56.409Z,9.74
2022-10-11T07:11:28.501Z,9.79
2022-10-11T07:14:00.612Z,9.84
2022-10-11T07:16:29.898Z,9.90
2022-10-11T07:19:01.473Z,9.96
2022-10-11T07:21:31.706Z,10.06
2022-10-11T07:24:00.225Z,10.08
2022-10-11T07:26:33.861Z,10.13
2022-10-11T07:29:07.152Z,10.17
2022-10-11T07:31:35.660Z,10.23
2022-10-11T07:34:04.062Z,10.27
2022-10-11T07:36:32.053Z,10.35
2022-10-11T07:38:59.963Z,10.44
2022-10-11T07:41:28.048Z,10.48
2022-10-11T07:43:56.008Z,10.56
2022-10-11T07:46:24.434Z,10.63
2022-10-11T07:48:52.906Z,10.69
2022-10-11T07:51:24.068Z,10.74
2022-10-11T07:53:57.407Z,10.76
2022-10-11T07:56:28.396Z,10.80
2022-10-11T07:59:00.212Z,10.85
2022-10-11T08:01:29.620Z,10.91
2022-10-11T08:03:58.431Z,10.96
2022-10-11T08:06:32.619Z,11.01
2022-10-11T08:09:02.286Z,11.07
2022-10-11T08:11:37.244Z,11.11
2022-10-11T08:14:08.867Z,11.15
2022-10-11T08:16:41.187Z,11.23
2022-10-11T08:19:09.513Z,11.24
2022-10-11T08:21:37.741Z,11.30
2022-10-11T08:24:06.889Z,11.33
2022-10-11T08:26:35.924Z,11.38
2022-10-11T08:29:05.275Z,11.42
2022-10-11T08:31:35.335Z,11.47
2022-10-11T08:34:03.947Z,11.52
2022-10-11T08:36:31.992Z,11.57
2022-10-11T08:39:00.554Z,11.61
2022-10-11T08:41:42.192Z,11.66
2022-10-11T08:45:05.477Z,11.70
2022-10-11T08:47:37.415Z,11.79
2022-10-11T08:50:08.472Z,11.81
2022-10-11T08:52:50.304Z,11.86
2022-10-11T08:55:39.794Z,11.93
2022-10-11T08:58:07.974Z,11.98
2022-10-11T09:00:38.740Z,12.02
2022-10-11T09:03:47.698Z,12.10
2022-10-11T09:06:51.314Z,12.15
2022-10-11T09:09:48.945Z,12.19
2022-10-11T09:12:32.286Z,12.24
2022-10-11T09:15:21.985Z,12.30
2022-10-11T09:18:03.624Z,12.35
2022-10-11T09:20:38.013Z,12.40
2022-10-11T09:23:06.252Z,12.48
2022-10-11T09:25:56.197Z,12.55
2022-10-11T09:28:48.996Z,12.60
2022-10-11T09:31:17.807Z,12.63
2022-10-11T09:33:50.107Z,12.70
2022-10-11T09:36:30.975Z,12.80
2022-10-11T09:39:34.533Z,12.92
2022-10-11T09:42:13.112Z,13.01
2022-10-11T09:44:52.990Z,13.13
2022-10-11T09:47:29.630Z,13.30
2022-10-11T09:50:06.526Z,13.39
2022-10-11T09:52:35.219Z,13.46
2022-10-11T09:55:04.168Z,13.44
2022-10-11T09:57:35.408Z,13.41
2022-10-11T10:00:21.784Z,13.40
2022-10-11T10:02:53.663Z,13.40
2022-10-11T10:05:28.012Z,13.31
2022-10-11T10:08:04.492Z,13.27
2022-10-11T10:10:40.284Z,13.22
2022-10-11T10:13:22.947Z,13.21
2022-10-11T10:15:58.609Z,13.19
2022-10-11T10:18:58.702Z,13.24
2022-10-11T10:21:34.103Z,13.34
2022-10-11T10:24:07.307Z,13.44
2022-10-11T10:26:36.168Z,13.54
2022-10-11T10:29:10.180Z,13.65
2022-10-11T10:32:12.912Z,13.64
2022-10-11T10:34:39.057Z,13.68
2022-10-11T10:37:15.828Z,13.63
2022-10-11T10:39:55.355Z,13.69
2022-10-11T10:42:23.953Z,13.73
2022-10-11T10:44:57.016Z,13.72
2022-10-11T10:47:50.744Z,13.67
2022-10-11T10:50:39.478Z,13.67
2022-10-11T10:53:52.475Z,13.65
2022-10-11T10:56:41.646Z,13.56
2022-10-11T10:59:37.672Z,13.58
2022-10-11T11:02:40.890Z,13.50
2022-10-11T11:05:33.396Z,13.45
2022-10-11T11:08:32.419Z,13.44
2022-10-11T11:11:50.998Z,13.40
2022-10-11T11:14:39.983Z,13.36
2022-10-11T11:17:26.614Z,13.34
2022-10-11T11:20:37.377Z,13.30
2022-10-11T11:23:34.023Z,13.25
2022-10-11T11:26:24.689Z,13.20
2022-10-11T11:29:02.542Z,13.19
2022-10-11T11:32:12.467Z,13.20
2022-10-11T11:34:49.123Z,13.21
2022-10-11T11:37:27.886Z,13.27
2022-10-11T11:40:19.911Z,13.40
2022-10-11T11:42:51.521Z,13.62
2022-10-11T11:45:47.045Z,13.89
2022-10-11T11:48:25.655Z,14.10
2022-10-11T11:51:15.082Z,14.28
2022-10-11T11:54:17.664Z,14.41
2022-10-11T11:57:13.825Z,14.52
2022-10-11T12:00:01.255Z,14.60
2022-10-11T12:02:51.733Z,14.66
2022-10-11T12:05:25.328Z,14.68
2022-10-11T12:08:02.271Z,14.70
2022-10-11T12:10:55.966Z,14.74
2022-10-11T12:13:40.802Z,14.74
2022-10-11T12:16:13.787Z,14.66
2022-10-11T12:19:14.338Z,14.61
2022-10-11T12:21:45.776Z,14.68
2022-10-11T12:24:25.318Z,14.66
2022-10-11T12:26:58.962Z,14.65
2022-10-11T12:29:50.495Z,14.76
2022-10-11T12:32:36.998Z,14.71
2022-10-11T12:35:33.404Z,14.69
2022-10-11T12:38:21.347Z,14.73
2022-10-11T12:40:54.340Z,14.85
2022-10-11T12:43:50.185Z,14.82
2022-10-11T12:46:31.101Z,14.75
2022-10-11T12:49:38.275Z,14.72
2022-10-11T12:52:34.977Z,14.77
2022-10-11T12:55:27.942Z,14.75
2022-10-11T12:58:26.179Z,14.68
2022-10-11T13:00:55.129Z,14.62
2022-10-11T13:03:41.338Z,14.57
2022-10-11T13:06:13.647Z,14.60
2022-10-11T13:08:46.859Z,14.68
2022-10-11T13:11:26.376Z,14.75
2022-10-11T13:13:58.143Z,14.80
2022-10-11T13:16:31.759Z,14.72
2022-10-11T13:19:01.250Z,14.67
2022-10-11T13:28:10.253Z,14.72
2022-10-11T13:30:39.996Z,14.70
2022-10-11T13:33:23.608Z,14.77
2022-10-11T13:35:53.168Z,14.74
2022-10-11T13:38:31.006Z,14.73
2022-10-11T13:41:02.733Z,14.78
2022-10-11T13:43:32.243Z,14.76
2022-10-11T13:46:02.860Z,14.77
2022-10-11T13:48:32.398Z,14.78
2022-10-11T13:51:30.644Z,14.83
2022-10-11T13:54:13.613Z,14.92
2022-10-11T13:56:52.261Z,15.03
2022-10-11T13:59:27.410Z,15.10
2022-10-11T14:02:04.515Z,15.23
2022-10-11T14:04:41.367Z,15.35
2022-10-11T14:07:39.678Z,15.29
2022-10-11T14:10:08.378Z,15.23
2022-10-11T14:12:46.672Z,15.28
2022-10-11T14:15:32.099Z,15.29
2022-10-11T14:18:01.489Z,15.26
2022-10-11T14:20:44.279Z,15.29
2022-10-11T14:23:13.356Z,15.24
2022-10-11T14:25:41.714Z,15.19
2022-10-11T14:28:13.965Z,15.13
2022-10-11T14:30:45.160Z,15.11
2022-10-11T14:33:13.607Z,15.16
2022-10-11T14:35:43.304Z,15.12
2022-10-11T14:38:13.173Z,15.08
2022-10-11T14:40:41.707Z,15.04
2022-10-11T14:43:10.005Z,14.97
2022-10-11T14:45:38.954Z,14.92
2022-10-11T14:48:07.329Z,14.87
2022-10-11T14:50:49.103Z,14.89
2022-10-11T14:53:17.458Z,14.91
2022-10-11T14:55:45.946Z,14.89
2022-10-11T14:58:16.976Z,14.83
2022-10-11T15:00:46.145Z,14.75
2022-10-11T15:03:14.495Z,14.65
2022-10-11T15:05:42.781Z,14.55
2022-10-11T15:08:12.306Z,14.51
2022-10-11T15:10:42.545Z,14.49
2022-10-11T15:13:11.494Z,14.42
2022-10-11T15:15:42.130Z,14.37
2022-10-11T15:18:16.716Z,14.30
2022-10-11T15:20:47.750Z,14.23
2022-10-11T15:23:16.103Z,14.17
2022-10-11T15:25:44.652Z,14.11
2022-10-11T15:28:28.127Z,14.05
2022-10-11T15:30:57.319Z,13.98
2022-10-11T15:33:26.290Z,13.96
2022-10-11T15:35:54.755Z,13.94
2022-10-11T15:38:26.100Z,13.92
2022-10-11T15:40:58.433Z,13.83
2022-10-11T15:43:27.821Z,13.77
2022-10-11T15:45:56.776Z,13.76
2022-10-11T15:48:27.474Z,13.71
2022-10-11T15:50:56.000Z,13.66
2022-10-11T15:53:38.421Z,13.69
2022-10-11T15:56:10.386Z,13.66
2022-10-11T15:58:44.578Z,13.62
2022-10-11T16:01:20.203Z,13.59
2022-10-11T16:03:50.847Z,13.61
2022-10-11T16:06:21.014Z,13.57
2022-10-11T16:08:49.477Z,13.53
2022-10-11T16:11:18.031Z,13.46
2022-10-11T16:13:46.472Z,13.43
2022-10-11T16:16:14.981Z,13.39
2022-10-11T16:18:43.337Z,13.29
2022-10-11T16:21:15.598Z,13.25
2022-10-11T16:23:44.065Z,13.17
2022-10-11T16:26:16.384Z,13.09
2022-10-11T16:28:47.629Z,13.03
2022-10-11T16:31:20.804Z,12.99
2022-10-11T16:33:50.340Z,12.91
2022-10-11T16:36:42.477Z,12.83
2022-10-11T16:39:18.181Z,12.73
2022-10-11T16:41:47.102Z,12.63
2022-10-11T16:44:17.795Z,12.54
2022-10-11T16:46:48.280Z,12.48
2022-10-11T16:49:19.190Z,12.44
2022-10-11T16:51:47.648Z,12.37
2022-10-11T16:54:20.293Z,12.32
2022-10-11T16:56:50.555Z,12.25
2022-10-11T16:59:26.711Z,12.20
2022-10-11T17:15:22.169Z,11.81
2022-10-11T17:18:08.900Z,11.72
2022-10-11T17:20:54.455Z,11.63
2022-10-11T17:23:47.222Z,11.52
2022-10-11T17:26:40.368Z,11.45
2022-10-11T17:29:22.178Z,11.36
2022-10-11T17:31:53.927Z,11.32
2022-10-11T17:34:32.613Z,11.28
2022-10-11T17:37:01.132Z,11.25
2022-10-11T17:39:29.572Z,11.21
2022-10-11T17:41:57.932Z,11.18
2022-10-11T17:44:26.471Z,11.14
2022-10-11T17:46:55.123Z,11.09
2022-10-11T17:49:28.082Z,11.04
2022-10-11T17:51:56.914Z,10.97
2022-10-11T17:54:26.304Z,10.92
2022-10-11T17:56:55.188Z,10.91
2022-10-11T18:02:20.081Z,10.82
2022-10-11T18:04:54.919Z,10.78
2022-10-11T18:07:24.279Z,10.66
2022-10-11T18:09:52.792Z,10.61
2022-10-11T18:12:22.945Z,10.57
2022-10-11T18:14:52.175Z,10.56
2022-10-11T18:17:23.282Z,10.58
2022-10-11T18:19:52.367Z,10.56
2022-10-11T18:22:21.703Z,10.56
2022-10-11T18:24:50.399Z,10.56
2022-10-11T18:27:20.090Z,10.54
2022-10-11T18:29:49.652Z,10.52
2022-10-11T18:32:21.132Z,10.50
2022-10-11T18:34:56.066Z,10.47
2022-10-11T18:37:29.612Z,10.46
2022-10-11T18:39:58.539Z,10.43
2022-10-11T18:42:27.765Z,10.38
2022-10-11T18:45:01.909Z,10.40
2022-10-11T18:50:28.259Z,10.39
2022-10-11T18:53:34.340Z,10.32
2022-10-11T18:56:08.604Z,10.24
2022-10-11T18:58:42.162Z,10.22
2022-10-11T19:01:23.489Z,10.14
2022-10-11T19:03:57.588Z,10.09
2022-10-11T19:06:33.311Z,10.04
2022-10-11T19:09:10.272Z,10.01
2022-10-11T19:11:39.182Z,9.99
2022-10-11T19:14:11.724Z,9.98
2022-10-11T19:16:45.335Z,9.98
2022-10-11T19:19:22.120Z,9.95
2022-10-11T19:21:56.876Z,9.94
2022-10-11T19:24:34.400Z,9.95
2022-10-11T19:27:17.228Z,9.90
2022-10-11T19:30:01.994Z,9.90
2022-10-11T19:32:30.935Z,9.88
2022-10-11T19:34:59.652Z,9.88
2022-10-11T19:37:28.492Z,9.84
2022-10-11T19:39:57.233Z,9.80
2022-10-11T19:42:25.641Z,9.77
2022-10-11T19:44:54.063Z,9.76
2022-10-11T19:47:25.131Z,9.74
2022-10-11T19:49:54.149Z,9.71
2022-10-11T19:52:22.607Z,9.71
2022-10-11T19:54:51.178Z,9.67
2022-10-11T19:57:19.614Z,9.66
2022-10-11T19:59:48.049Z,9.64
2022-10-11T20:02:16.787Z,9.63
2022-10-11T20:04:52.425Z,9.62
2022-10-11T20:07:21.971Z,9.62
2022-10-11T20:09:50.438Z,9.62
2022-10-11T20:12:18.824Z,9.58
2022-10-11T20:14:47.261Z,9.57
2022-10-11T20:17:16.390Z,9.55
2022-10-11T20:19:45.037Z,9.52
2022-10-11T20:22:14.113Z,9.51
2022-10-11T20:24:42.779Z,9.48
2022-10-11T20:27:11.457Z,9.48
2022-10-11T20:29:42.718Z,9.48
2022-10-11T20:32:11.404Z,9.47
2022-10-11T20:34:39.784Z,9.44
2022-10-11T20:37:08.321Z,9.39
2022-10-11T20:39:36.670Z,9.36
2022-10-11T20:42:05.277Z,9.27
2022-10-11T20:44:33.840Z,9.21
2022-10-11T20:47:04.251Z,9.14
2022-10-11T20:49:32.949Z,9.11
2022-10-11T20:52:01.337Z,9.12
2022-10-11T20:54:34.206Z,9.13
2022-10-11T20:57:03.129Z,9.13
2022-10-11T20:59:31.636Z,9.14
2022-10-11T21:02:00.071Z,9.12
2022-10-11T21:04:28.731Z,9.10
2022-10-11T21:06:57.178Z,9.05
2022-10-11T21:09:26.222Z,8.98
2022-10-11T21:11:54.741Z,8.98
2022-10-11T21:14:23.123Z,8.97
2022-10-11T21:16:51.725Z,8.93
2022-10-11T21:19:20.379Z,8.91
2022-10-11T21:21:53.548Z,8.88
2022-10-11T21:24:22.858Z,8.82
2022-10-11T21:26:51.358Z,8.81
2022-10-11T21:29:19.890Z,8.82
2022-10-11T21:31:48.423Z,8.84
2022-10-11T21:34:16.875Z,8.86
2022-10-11T21:36:45.285Z,8.86
2022-10-11T21:39:13.849Z,8.86
2022-10-11T21:41:43.032Z,8.85
2022-10-11T21:44:11.459Z,8.83
2022-10-11T21:47:06.701Z,8.80
2022-10-11T21:49:28.389Z,8.76
2022-10-11T21:51:57.261Z,8.73
2022-10-11T21:54:25.862Z,8.69
2022-10-11T21:56:54.361Z,8.63
2022-10-11T21:59:23.065Z,8.58
2022-10-11T22:01:55.029Z,8.57
2022-10-11T22:04:26.651Z,8.53
2022-10-11T22:06:55.013Z,8.47
2022-10-11T22:09:23.571Z,8.43
2022-10-11T22:11:52.081Z,8.40
2022-10-11T22:14:20.531Z,8.42
2022-10-11T22:16:50.272Z,8.42
2022-10-11T22:19:18.646Z,8.43
2022-10-11T22:21:47.303Z,8.43
2022-10-11T22:24:16.744Z,8.42
2022-10-11T22:26:45.119Z,8.36
2022-10-11T22:29:16.728Z,8.34
2022-10-11T22:31:45.293Z,8.35
2022-10-11T22:34:16.339Z,8.36
2022-10-11T22:36:44.752Z,8.33
2022-10-11T22:39:13.295Z,8.32
2022-10-11T22:41:41.776Z,8.29
2022-10-11T22:44:10.628Z,8.31
2022-10-11T22:46:39.104Z,8.30
2022-10-11T22:49:07.775Z,8.32
2022-10-11T22:51:36.219Z,8.34
2022-10-11T22:54:58.595Z,8.30
2022-10-11T22:57:28.974Z,8.26
2022-10-11T22:59:57.428Z,8.17
2022-10-11T23:02:25.575Z,8.11
2022-10-11T23:04:54.004Z,8.09
2022-10-11T23:07:22.493Z,8.07
2022-10-11T23:09:50.790Z,8.11
2022-10-11T23:12:18.898Z,8.15
2022-10-11T23:14:47.271Z,8.20
2022-10-11T23:17:16.062Z,8.21
2022-10-11T23:19:44.364Z,8.16
2022-10-11T23:22:12.687Z,8.16
2022-10-11T23:24:41.150Z,8.11
2022-10-11T23:27:09.951Z,8.12
2022-10-11T23:29:40.124Z,8.09
2022-10-11T23:32:12.424Z,8.05
2022-10-11T23:34:41.387Z,8.03
2022-10-11T23:37:09.784Z,8.02
2022-10-11T23:39:38.478Z,7.99
2022-10-11T23:42:06.946Z,7.97
2022-10-11T23:44:35.229Z,7.96
2022-10-11T23:47:03.857Z,7.96
2022-10-11T23:49:32.169Z,7.93
2022-10-11T23:52:00.473Z,7.86
2022-10-11T23:54:28.960Z,7.80
2022-10-11T23:56:57.459Z,7.77
2022-10-11T23:59:25.761Z,7.77
